Time;durP1;ratioP1;P1;durP2;ratioP2;P2;SDS_P1;SDS_P2;PMS_P1;PMS_P2;Temp;Humidity;BMP_temperature;BMP_pressure;BME280_temperature;BME280_humidity;BME280_pressure;Samples;Min_cycle;Max_cycle;Signal;HPM_P1;HPM_P2
2023/06/26 00:01:57;;;;;;;19.55;8.25;;;;;;;22.55;73.45;98896.06;5014639;28;20504;-73
2023/06/26 00:04:23;;;;;;;13.00;7.57;;;;;;;22.67;73.33;98896.72;5015465;28;20028;-73
2023/06/26 00:06:48;;;;;;;18.67;8.40;;;;;;;22.63;72.92;98893.13;5033254;28;20021;-73
2023/06/26 00:09:13;;;;;;;10.43;7.85;;;;;;;22.66;73.09;98900.81;5033157;28;20060;-73
2023/06/26 00:11:39;;;;;;;13.48;7.65;;;;;;;22.62;73.25;98898.00;5015430;28;20029;-73
2023/06/26 00:14:04;;;;;;;9.77;6.40;;;;;;;22.68;73.16;98893.44;5043658;28;20029;-73
2023/06/26 00:16:30;;;;;;;12.40;6.85;;;;;;;22.82;72.96;98894.44;5052098;28;20032;-74
2023/06/26 00:18:56;;;;;;;11.93;7.00;;;;;;;22.83;72.76;98904.59;5051896;28;20118;-74
2023/06/26 00:21:21;;;;;;;13.13;6.97;;;;;;;22.74;73.04;98908.00;5034022;28;20499;-73
2023/06/26 00:23:47;;;;;;;13.38;8.35;;;;;;;22.84;72.66;98904.19;5035089;28;20025;-73
2023/06/26 00:26:12;;;;;;;10.50;7.63;;;;;;;22.97;72.06;98901.50;5052761;28;20025;-73
2023/06/26 00:28:38;;;;;;;10.98;7.45;;;;;;;23.06;71.98;98892.41;5052851;28;20021;-73
2023/06/26 00:31:04;;;;;;;10.23;7.10;;;;;;;22.90;72.21;98893.09;5026652;28;20108;-73
2023/06/26 00:33:29;;;;;;;12.80;7.60;;;;;;;22.55;73.75;98900.97;5015289;28;20079;-73
2023/06/26 00:35:55;;;;;;;15.95;8.23;;;;;;;22.52;74.28;98902.66;5050627;28;20035;-73
2023/06/26 00:38:21;;;;;;;12.30;8.07;;;;;;;22.62;74.33;98900.06;5052351;28;20024;-74
2023/06/26 00:40:46;;;;;;;13.77;7.88;;;;;;;22.66;73.87;98897.94;5051501;28;20016;-73
2023/06/26 00:43:12;;;;;;;14.60;9.05;;;;;;;22.81;72.92;98889.97;5052549;28;20392;-73
2023/06/26 00:45:37;;;;;;;15.07;7.95;;;;;;;22.88;72.81;98897.59;5040008;28;20091;-73
2023/06/26 00:48:03;;;;;;;10.30;7.68;;;;;;;22.95;72.25;98911.75;5014800;28;20152;-74
2023/06/26 00:50:29;;;;;;;14.27;7.13;;;;;;;22.94;72.11;98902.38;5032369;28;20485;-73
2023/06/26 00:52:56;;;;;;;12.93;7.93;;;;;;;22.98;72.45;98899.47;5032676;28;20025;-73
2023/06/26 00:55:22;;;;;;;10.75;8.20;;;;;;;23.18;71.29;98904.44;5032350;28;20527;-74
2023/06/26 00:57:48;;;;;;;10.90;7.70;;;;;;;23.28;70.80;98901.38;5035411;28;20021;-73
2023/06/26 01:00:14;;;;;;;11.70;8.73;;;;;;;23.34;70.31;98901.69;5048392;28;20020;-73
2023/06/26 01:02:40;;;;;;;12.38;7.72;;;;;;;23.42;69.88;98905.22;5032137;28;20029;-73
2023/06/26 01:05:06;;;;;;;15.25;8.88;;;;;;;23.20;71.10;98904.78;5032222;28;20056;-73
2023/06/26 01:07:36;;;;;;;15.23;8.43;;;;;;;23.32;70.65;98895.63;5042773;28;20228;-73
2023/06/26 01:10:04;;;;;;;13.75;8.18;;;;;;;23.22;71.12;98896.59;5051864;28;20108;-73
2023/06/26 01:12:31;;;;;;;12.55;8.35;;;;;;;23.29;71.13;98893.66;5037316;28;20030;-73
2023/06/26 01:14:56;;;;;;;12.07;8.85;;;;;;;23.20;71.07;98896.22;5014140;28;20029;-73
2023/06/26 01:17:23;;;;;;;13.30;8.85;;;;;;;23.26;70.96;98885.91;5030789;28;20040;-73
2023/06/26 01:19:50;;;;;;;16.90;8.98;;;;;;;23.33;70.83;98890.72;5047051;28;20048;-73
2023/06/26 01:22:34;;;;;;;12.65;9.82;;;;;;;22.88;72.51;98889.03;5033842;28;20077;-73
2023/06/26 01:25:18;;;;;;;15.93;9.20;;;;;;;23.08;71.78;98892.78;5051644;28;20505;-73
2023/06/26 01:27:46;;;;;;;14.05;9.85;;;;;;;22.93;72.40;98889.34;5015414;28;20033;-73
2023/06/26 01:30:12;;;;;;;15.40;9.48;;;;;;;22.89;72.66;98885.78;5031530;28;20079;-73
2023/06/26 01:32:40;;;;;;;16.17;10.35;;;;;;;22.76;72.85;98881.94;5032399;28;20030;-73
2023/06/26 01:35:07;;;;;;;15.50;10.40;;;;;;;22.60;73.82;98879.75;5013374;28;20029;-73
2023/06/26 01:37:32;;;;;;;18.70;9.77;;;;;;;22.47;74.36;98877.47;5031550;28;20475;-73
2023/06/26 01:39:58;;;;;;;15.80;9.68;;;;;;;22.36;74.85;98873.97;5013769;28;20024;-73
2023/06/26 01:42:24;;;;;;;18.10;11.13;;;;;;;22.37;74.98;98879.22;5032501;28;20560;-73
2023/06/26 01:44:52;;;;;;;16.70;10.50;;;;;;;22.53;74.27;98872.91;5031515;28;20048;-73
2023/06/26 01:47:25;;;;;;;17.52;10.43;;;;;;;22.48;74.27;98870.56;5012871;28;20986;-73
2023/06/26 01:50:05;;;;;;;20.02;12.40;;;;;;;22.33;75.06;98872.78;5012502;28;20028;-74
2023/06/26 01:52:43;;;;;;;17.50;11.60;;;;;;;22.40;74.88;98874.72;5030906;28;20030;-73
2023/06/26 01:55:19;;;;;;;19.50;11.93;;;;;;;22.39;74.68;98881.66;5013144;28;20445;-73
2023/06/26 01:57:47;;;;;;;21.02;12.57;;;;;;;22.27;75.83;98880.22;5030801;28;20488;-73
2023/06/26 02:00:17;;;;;;;20.58;11.90;;;;;;;22.32;75.25;98876.06;5030781;28;20056;-72
2023/06/26 02:02:44;;;;;;;16.42;11.38;;;;;;;22.29;75.29;98878.53;5013586;28;20028;-73
2023/06/26 02:05:09;;;;;;;20.95;12.82;;;;;;;22.38;74.92;98871.50;5035112;28;20036;-73
2023/06/26 02:07:35;;;;;;;19.92;13.43;;;;;;;22.40;74.34;98872.69;5031182;28;20484;-73
2023/06/26 02:10:02;;;;;;;20.20;12.88;;;;;;;22.39;74.44;98875.97;5031109;28;20030;-73
2023/06/26 02:12:28;;;;;;;21.95;13.57;;;;;;;22.42;74.11;98869.41;5030840;28;20060;-73
2023/06/26 02:14:53;;;;;;;14.25;11.43;;;;;;;22.34;74.00;98870.75;5030612;28;20049;-73
2023/06/26 02:17:19;;;;;;;19.35;11.82;;;;;;;22.45;74.27;98871.41;5031048;28;20025;-73
2023/06/26 02:19:47;;;;;;;22.77;13.43;;;;;;;22.52;73.58;98868.44;5030966;28;20049;-73
2023/06/26 02:22:16;;;;;;;20.58;11.95;;;;;;;22.54;73.27;98860.28;5030311;28;20076;-73
2023/06/26 02:24:43;;;;;;;20.20;11.85;;;;;;;22.49;73.73;98865.66;5031170;28;20382;-73
2023/06/26 02:27:09;;;;;;;17.58;11.48;;;;;;;22.40;73.82;98861.28;5030637;28;20512;-73
2023/06/26 02:29:34;;;;;;;14.65;10.70;;;;;;;22.34;74.12;98856.53;5029967;28;20439;-73
2023/06/26 02:32:00;;;;;;;15.55;10.80;;;;;;;22.36;74.03;98862.59;5030916;28;20022;-73
2023/06/26 02:34:25;;;;;;;22.17;11.15;;;;;;;22.33;74.36;98864.25;5013199;28;20171;-73
2023/06/26 02:36:54;;;;;;;22.85;12.23;;;;;;;22.24;74.65;98856.25;5013218;28;20017;-73
2023/06/26 02:39:19;;;;;;;17.63;12.57;;;;;;;22.30;74.70;98853.72;5012674;28;20036;-73
2023/06/26 02:41:45;;;;;;;19.23;11.93;;;;;;;22.21;75.02;98851.41;5030821;28;20393;-73
2023/06/26 02:44:12;;;;;;;16.70;11.02;;;;;;;22.31;74.64;98852.47;5012768;28;20044;-74
2023/06/26 02:46:37;;;;;;;19.83;9.65;;;;;;;22.36;74.71;98856.88;5013013;28;20025;-73
2023/06/26 02:49:03;;;;;;;19.38;12.07;;;;;;;22.20;75.18;98851.84;5029760;28;20500;-73
2023/06/26 02:51:28;;;;;;;17.13;11.15;;;;;;;22.25;75.13;98863.56;5012985;28;20017;-73
2023/06/26 02:53:54;;;;;;;17.50;11.30;;;;;;;22.13;75.65;98855.59;5013135;28;20029;-73
2023/06/26 02:56:19;;;;;;;21.80;13.13;;;;;;;22.15;75.87;98858.81;5030357;28;20551;-73
2023/06/26 02:58:45;;;;;;;16.27;11.95;;;;;;;22.13;75.89;98864.16;5030225;28;20032;-73
2023/06/26 03:01:10;;;;;;;21.05;12.70;;;;;;;22.26;75.43;98862.31;5015084;28;20022;-72
2023/06/26 03:03:40;;;;;;;17.23;10.75;;;;;;;22.19;75.83;98862.41;5034355;28;20408;-73
2023/06/26 03:06:07;;;;;;;20.80;11.37;;;;;;;22.09;76.34;98864.19;5033438;28;20021;-73
2023/06/26 03:08:33;;;;;;;17.25;10.63;;;;;;;22.02;76.98;98864.28;5033844;28;20173;-73
2023/06/26 03:10:58;;;;;;;22.50;12.73;;;;;;;22.09;76.74;98869.88;5034312;28;20112;-73
2023/06/26 03:13:24;;;;;;;14.15;10.25;;;;;;;22.00;77.23;98863.91;5015910;28;20029;-72
2023/06/26 03:15:49;;;;;;;20.38;11.23;;;;;;;22.06;77.19;98875.63;5039963;28;20021;-73
2023/06/26 03:18:15;;;;;;;19.38;11.40;;;;;;;22.23;76.61;98877.44;5034913;28;20057;-72
2023/06/26 03:20:40;;;;;;;21.15;13.02;;;;;;;22.10;77.35;98887.78;5053960;28;20044;-73
2023/06/26 03:23:06;;;;;;;19.92;11.70;;;;;;;22.02;77.66;98885.03;5040676;28;20052;-71
2023/06/26 03:25:31;;;;;;;20.80;12.95;;;;;;;22.09;77.41;98877.63;5016371;28;20108;-71
2023/06/26 03:27:57;;;;;;;20.13;13.20;;;;;;;22.16;76.75;98880.38;5033184;28;20017;-72
2023/06/26 03:30:22;;;;;;;25.38;13.45;;;;;;;22.08;77.33;98893.06;5015505;28;20044;-72
2023/06/26 03:32:48;;;;;;;20.48;12.65;;;;;;;22.01;77.62;98885.44;5015961;28;20024;-75
2023/06/26 03:35:14;;;;;;;24.55;13.50;;;;;;;22.01;77.94;98888.28;5033854;28;20068;-73
2023/06/26 03:37:40;;;;;;;22.67;12.85;;;;;;;22.13;77.30;98892.63;5033793;28;20404;-73
2023/06/26 03:40:06;;;;;;;22.77;13.02;;;;;;;22.12;77.09;98891.00;5032721;28;20025;-73
2023/06/26 03:42:31;;;;;;;24.73;13.48;;;;;;;22.04;77.26;98890.31;5033624;28;20017;-73
2023/06/26 03:44:57;;;;;;;19.65;13.55;;;;;;;22.07;77.08;98897.16;5033330;28;20558;-73
2023/06/26 03:47:22;;;;;;;21.10;14.18;;;;;;;22.16;77.18;98909.66;5033526;28;20404;-73
2023/06/26 03:49:48;;;;;;;18.77;13.57;;;;;;;22.26;76.29;98889.97;5015358;28;20029;-73
2023/06/26 03:52:13;;;;;;;20.77;13.23;;;;;;;22.42;75.48;98890.16;5015617;28;20579;-73
2023/06/26 03:54:39;;;;;;;23.23;13.00;;;;;;;22.47;74.85;98888.88;5050455;28;20102;-73
2023/06/26 03:57:04;;;;;;;21.08;13.98;;;;;;;22.54;74.34;98888.75;5050745;28;20021;-73
2023/06/26 03:59:30;;;;;;;23.52;13.55;;;;;;;22.53;74.28;98892.06;5034114;28;20064;-73
2023/06/26 04:01:56;;;;;;;19.13;14.18;;;;;;;22.49;74.71;98888.44;5015684;28;20056;-73
2023/06/26 04:04:22;;;;;;;20.15;13.95;;;;;;;22.66;74.00;98892.25;5015605;28;20041;-73
2023/06/26 04:06:47;;;;;;;21.05;13.85;;;;;;;22.71;73.89;98903.97;5033322;28;20022;-73
2023/06/26 04:09:12;;;;;;;19.50;13.02;;;;;;;22.73;73.62;98889.28;5015333;28;20033;-73
2023/06/26 04:11:38;;;;;;;20.27;13.13;;;;;;;22.67;73.66;98896.72;5032410;28;20025;-73
2023/06/26 04:14:03;;;;;;;18.55;12.40;;;;;;;22.66;73.65;98889.41;5041192;28;20048;-73
2023/06/26 04:16:29;;;;;;;18.90;12.38;;;;;;;22.81;72.53;98899.34;5034904;28;20091;-73
2023/06/26 04:18:56;;;;;;;18.13;12.88;;;;;;;22.84;72.86;98906.22;5039400;28;20051;-73
2023/06/26 04:21:24;;;;;;;21.92;13.85;;;;;;;22.87;72.16;98905.38;5027434;28;20523;-72
2023/06/26 04:23:50;;;;;;;19.23;12.32;;;;;;;22.93;72.30;98885.72;5055024;28;20021;-73
2023/06/26 04:26:16;;;;;;;19.05;12.57;;;;;;;22.94;71.47;98890.97;5044346;28;20036;-73
2023/06/26 04:28:42;;;;;;;20.38;12.35;;;;;;;22.89;71.10;98894.31;5046461;28;20029;-74
2023/06/26 04:31:08;;;;;;;18.33;12.15;;;;;;;22.82;71.13;98889.56;5040998;28;20044;-73
2023/06/26 04:33:37;;;;;;;23.17;12.73;;;;;;;22.79;70.58;98892.47;5025690;28;20021;-73
2023/06/26 04:36:04;;;;;;;21.30;13.35;;;;;;;22.86;70.87;98893.13;5047792;28;20037;-73
2023/06/26 04:38:30;;;;;;;21.38;13.00;;;;;;;22.90;70.69;98900.81;5017445;28;20132;-73
2023/06/26 04:40:56;;;;;;;17.77;12.77;;;;;;;22.96;70.16;98893.41;5039433;28;20028;-73
2023/06/26 04:43:21;;;;;;;17.98;12.82;;;;;;;22.82;70.11;98897.28;5042820;28;20424;-73
2023/06/26 04:45:47;;;;;;;15.13;11.32;;;;;;;22.70;70.41;98901.56;5040978;28;20033;-73
2023/06/26 04:48:13;;;;;;;15.38;11.63;;;;;;;22.77;70.26;98909.97;5014093;28;20115;-73
2023/06/26 04:50:38;;;;;;;19.10;12.82;;;;;;;22.89;70.30;98913.47;5034397;28;20103;-73
2023/06/26 04:53:04;;;;;;;18.48;12.30;;;;;;;22.82;70.58;98908.69;5048796;28;20503;-73
2023/06/26 04:55:30;;;;;;;20.42;12.70;;;;;;;22.80;69.76;98914.03;5050229;28;20032;-73
2023/06/26 04:57:55;;;;;;;16.17;11.77;;;;;;;22.84;69.36;98923.31;5052154;28;20104;-73
2023/06/26 05:00:22;;;;;;;17.92;13.48;;;;;;;22.79;69.15;98916.06;5052141;28;20099;-73
2023/06/26 05:02:48;;;;;;;14.23;11.38;;;;;;;22.84;68.34;98920.47;5051898;28;20036;-74
2023/06/26 05:05:13;;;;;;;19.00;12.13;;;;;;;23.00;68.75;98920.59;5048579;28;20024;-74
2023/06/26 05:07:42;;;;;;;17.85;12.18;;;;;;;22.93;68.39;98917.06;5031885;28;20508;-73
2023/06/26 05:10:08;;;;;;;17.52;11.20;;;;;;;23.08;68.48;98921.28;5031927;28;20511;-74
2023/06/26 05:12:33;;;;;;;25.73;11.45;;;;;;;23.00;67.67;98919.78;5032089;28;20040;-73
2023/06/26 05:14:59;;;;;;;15.38;11.20;;;;;;;22.89;68.42;98928.53;5032001;28;20033;-73
2023/06/26 05:17:24;;;;;;;16.83;10.77;;;;;;;22.97;68.58;98927.16;5014187;28;20036;-73
2023/06/26 05:19:50;;;;;;;23.80;12.20;;;;;;;23.02;68.21;98936.47;5036516;28;20044;-72
2023/06/26 05:22:17;;;;;;;19.65;12.65;;;;;;;22.92;68.28;98941.09;5047097;28;20495;-74
2023/06/26 05:24:46;;;;;;;16.02;11.52;;;;;;;22.94;68.59;98945.13;5015996;28;20029;-75
2023/06/26 05:27:19;;;;;;;13.70;10.93;;;;;;;22.88;67.73;98937.50;5020376;28;20033;-74
2023/06/26 05:29:45;;;;;;;16.50;12.23;;;;;;;22.92;68.60;98929.69;5045326;28;20052;-75
2023/06/26 05:32:12;;;;;;;18.13;10.85;;;;;;;23.04;67.92;98940.47;5025989;28;20503;-75
2023/06/26 05:34:39;;;;;;;14.48;10.63;;;;;;;22.99;67.51;98941.81;5028976;28;20432;-74
2023/06/26 05:37:06;;;;;;;17.20;10.98;;;;;;;23.06;67.72;98946.59;5043674;28;20057;-75
2023/06/26 05:39:32;;;;;;;20.55;11.52;;;;;;;23.11;67.83;98943.22;5037378;28;20109;-78
2023/06/26 05:41:58;;;;;;;19.05;11.13;;;;;;;23.20;67.33;98941.88;5036877;28;20494;-74
2023/06/26 05:44:23;;;;;;;20.45;11.27;;;;;;;23.28;67.24;98941.31;5031476;28;20512;-73
2023/06/26 05:46:49;;;;;;;16.38;10.45;;;;;;;23.23;66.99;98943.84;5041732;28;20782;-71
2023/06/26 05:49:14;;;;;;;16.80;10.23;;;;;;;23.39;66.57;98943.97;5041136;28;20037;-74
2023/06/26 05:51:40;;;;;;;17.40;9.85;;;;;;;23.37;65.64;98945.66;5031158;28;20030;-73
2023/06/26 05:54:06;;;;;;;20.38;10.23;;;;;;;23.55;66.03;98948.97;5042516;28;20032;-75
2023/06/26 05:56:33;;;;;;;18.08;10.02;;;;;;;23.52;65.96;98932.75;5041904;28;20036;-77
2023/06/26 05:58:58;;;;;;;11.02;9.15;;;;;;;23.45;65.70;98943.47;5043260;28;20531;-73
2023/06/26 06:01:24;;;;;;;21.88;10.75;;;;;;;23.56;66.16;98942.03;5041003;28;20029;-73
2023/06/26 06:03:49;;;;;;;13.43;10.60;;;;;;;23.64;66.29;98945.53;5048893;28;20017;-75
2023/06/26 06:06:15;;;;;;;17.80;10.27;;;;;;;23.70;65.81;98937.28;5026622;28;20032;-73
2023/06/26 06:08:41;;;;;;;15.55;10.50;;;;;;;23.64;66.28;98942.69;5023867;28;20037;-74
2023/06/26 06:11:07;;;;;;;13.15;10.00;;;;;;;23.70;65.30;98935.25;5026836;28;20535;-74
2023/06/26 06:13:32;;;;;;;39.50;26.95;;;;;;;23.93;65.67;98935.59;5042611;28;20469;-74
2023/06/26 06:15:58;;;;;;;19.50;14.18;;;;;;;24.21;64.37;98931.34;5049275;28;20033;-74
2023/06/26 06:18:23;;;;;;;19.30;11.55;;;;;;;24.37;63.08;98935.50;5041304;28;20129;-74
2023/06/26 06:20:48;;;;;;;20.85;12.63;;;;;;;24.63;61.70;98932.88;5049216;28;20009;-74
2023/06/26 06:23:14;;;;;;;10.55;9.00;;;;;;;24.59;61.45;98926.44;5016183;28;20033;-74
2023/06/26 06:25:39;;;;;;;18.40;11.02;;;;;;;24.84;60.46;98927.91;5025883;28;20036;-78
2023/06/26 06:28:05;;;;;;;14.38;8.93;;;;;;;24.92;59.82;98927.28;5037815;28;20028;-77
2023/06/26 06:30:31;;;;;;;28.10;14.45;;;;;;;25.24;59.28;98931.38;5030400;28;20029;-76
2023/06/26 06:32:59;;;;;;;11.70;8.90;;;;;;;25.04;57.45;98925.75;5035413;28;20098;-77
2023/06/26 06:35:24;;;;;;;15.95;8.07;;;;;;;25.14;57.65;98926.72;5045413;28;20039;-81
2023/06/26 06:37:50;;;;;;;21.77;11.68;;;;;;;25.43;58.32;98931.69;5035813;28;20029;-79
2023/06/26 06:40:16;;;;;;;22.98;11.02;;;;;;;25.67;56.20;98933.53;5034797;28;20026;-80
2023/06/26 06:42:41;;;;;;;19.10;8.93;;;;;;;25.84;55.15;98925.69;5035174;28;20060;-80
2023/06/26 06:45:07;;;;;;;13.30;7.25;;;;;;;25.27;55.48;98926.00;5040331;28;20060;-76
2023/06/26 06:47:33;;;;;;;18.35;8.10;;;;;;;25.30;55.26;98922.25;5032081;28;20032;-75
2023/06/26 06:50:03;;;;;;;12.43;7.30;;;;;;;25.42;54.64;98929.28;5043342;28;20029;-77
2023/06/26 06:52:29;;;;;;;10.82;6.40;;;;;;;25.30;54.38;98928.75;5037903;28;20080;-79
2023/06/26 06:54:58;;;;;;;14.68;7.68;;;;;;;25.19;54.35;98936.81;5043879;28;20499;-78
2023/06/26 06:57:25;;;;;;;10.98;6.75;;;;;;;25.15;54.87;98936.13;5003933;28;20083;-75
2023/06/26 06:59:50;;;;;;;9.77;6.15;;;;;;;25.11;54.44;98924.75;5048878;28;20044;-75
2023/06/26 07:02:19;;;;;;;8.43;7.18;;;;;;;25.31;55.56;98938.94;5028301;28;20024;-80
2023/06/26 07:04:45;;;;;;;18.00;7.20;;;;;;;25.37;53.45;98933.50;5016650;28;20021;-77
2023/06/26 07:07:13;;;;;;;8.52;6.97;;;;;;;25.22;54.27;98924.50;5041231;28;20504;-76
2023/06/26 07:09:39;;;;;;;14.55;7.10;;;;;;;25.69;54.82;98928.16;5048154;28;20821;-77
2023/06/26 07:12:04;;;;;;;10.57;6.50;;;;;;;25.61;52.93;98919.78;5047029;28;20033;-76
2023/06/26 07:14:30;;;;;;;10.18;6.30;;;;;;;25.56;52.99;98934.63;5044384;28;20044;-78
2023/06/26 07:16:56;;;;;;;7.35;5.90;;;;;;;25.77;52.22;98933.25;5050630;28;20499;-83
2023/06/26 07:19:21;;;;;;;12.20;6.50;;;;;;;25.99;52.65;98908.91;5033016;28;20076;-81
2023/06/26 07:21:47;;;;;;;15.77;6.72;;;;;;;26.22;51.47;98930.72;5029762;28;20620;-80
2023/06/26 07:24:12;;;;;;;13.48;7.00;;;;;;;26.23;51.87;98928.69;5027541;28;20033;-79
2023/06/26 07:26:38;;;;;;;12.95;7.15;;;;;;;26.58;50.77;98931.69;5022014;28;20076;-81
2023/06/26 07:29:03;;;;;;;9.90;6.10;;;;;;;26.32;50.29;98925.94;5024953;28;20161;-82
2023/06/26 07:31:29;;;;;;;9.35;7.28;;;;;;;26.53;49.99;98924.47;5012065;28;20034;-77
2023/06/26 07:33:54;;;;;;;15.80;6.72;;;;;;;26.90;50.39;98930.66;5018218;28;20052;-82
2023/06/26 07:36:20;;;;;;;15.77;6.40;;;;;;;26.53;48.63;98923.66;5018341;28;20025;-78
2023/06/26 07:38:45;;;;;;;17.35;6.57;;;;;;;26.53;49.43;98940.84;5024764;28;20116;-78
2023/06/26 07:41:11;;;;;;;9.27;6.38;;;;;;;26.60;50.48;98929.94;5026411;28;20393;-77
2023/06/26 07:43:36;;;;;;;12.50;6.30;;;;;;;27.00;49.24;98933.63;5015377;28;20167;-76
2023/06/26 07:46:02;;;;;;;7.10;6.40;;;;;;;26.86;49.57;98929.13;5021247;28;20037;-74
2023/06/26 07:48:27;;;;;;;8.25;6.25;;;;;;;27.21;48.56;98937.84;5017462;28;20033;-75
2023/06/26 07:50:53;;;;;;;9.85;6.93;;;;;;;27.41;48.33;98934.66;5025743;28;20030;-75
2023/06/26 07:53:19;;;;;;;12.25;7.47;;;;;;;27.22;48.69;98932.91;5020816;28;20416;-75
2023/06/26 07:55:44;;;;;;;15.57;6.45;;;;;;;26.54;49.93;98942.44;5031463;28;20025;-74
2023/06/26 07:58:10;;;;;;;7.88;7.00;;;;;;;26.23;50.77;98940.16;5031617;28;20492;-74
2023/06/26 08:00:36;;;;;;;13.77;6.85;;;;;;;26.26;50.50;98951.50;5022372;28;20447;-75
2023/06/26 08:03:02;;;;;;;11.20;6.57;;;;;;;25.97;51.42;98946.56;5019360;28;20398;-75
2023/06/26 08:05:27;;;;;;;9.88;6.80;;;;;;;25.95;51.75;98936.84;5017564;28;20029;-76
2023/06/26 08:07:53;;;;;;;7.20;6.50;;;;;;;25.95;51.57;98951.97;5023093;28;20054;-77
2023/06/26 08:10:18;;;;;;;9.48;6.88;;;;;;;25.99;52.40;98941.19;5012504;28;20079;-81
2023/06/26 08:12:45;;;;;;;7.13;5.88;;;;;;;26.12;50.77;98941.25;5017254;28;20030;-83
2023/06/26 08:15:11;;;;;;;9.73;6.28;;;;;;;26.29;50.37;98946.91;5023532;28;20061;-83
2023/06/26 08:17:37;;;;;;;10.75;7.00;;;;;;;26.13;50.69;98933.47;5023989;28;20038;-77
2023/06/26 08:20:04;;;;;;;10.70;7.22;;;;;;;26.06;51.12;98932.41;5041641;28;20474;-76
2023/06/26 08:22:30;;;;;;;10.05;7.53;;;;;;;26.60;50.49;98929.16;5049613;28;20029;-76
2023/06/26 08:24:55;;;;;;;19.88;7.18;;;;;;;26.98;49.32;98931.22;5046523;28;20102;-77
2023/06/26 08:27:21;;;;;;;14.40;6.35;;;;;;;26.94;48.33;98930.53;5048281;28;20099;-75
2023/06/26 08:29:46;;;;;;;10.95;6.40;;;;;;;26.57;49.22;98930.09;5046346;28;20021;-76
2023/06/26 08:32:12;;;;;;;10.05;7.40;;;;;;;26.25;51.01;98934.75;5030607;28;20091;-76
2023/06/26 08:34:37;;;;;;;9.50;6.75;;;;;;;26.43;50.76;98937.88;5052670;28;20025;-76
2023/06/26 08:37:03;;;;;;;12.25;8.00;;;;;;;26.38;50.55;98926.97;5024511;28;20032;-76
2023/06/26 08:39:28;;;;;;;8.40;7.32;;;;;;;26.35;51.82;98937.28;5032181;28;20033;-76
2023/06/26 08:41:54;;;;;;;9.30;7.07;;;;;;;26.42;50.92;98936.25;5048181;28;20029;-77
2023/06/26 08:44:24;;;;;;;7.60;6.75;;;;;;;26.58;50.06;98931.69;5047059;28;20028;-76
2023/06/26 08:46:50;;;;;;;13.20;7.40;;;;;;;26.66;49.80;98926.53;5038903;28;20087;-75
2023/06/26 08:49:32;;;;;;;10.45;6.82;;;;;;;26.86;50.18;98923.41;5012500;28;20082;-78
2023/06/26 08:52:16;;;;;;;9.13;7.18;;;;;;;27.14;48.28;98923.72;5023433;28;20022;-76
2023/06/26 08:54:46;;;;;;;7.15;6.38;;;;;;;27.10;48.56;98914.44;5031848;28;20776;-77
2023/06/26 08:57:13;;;;;;;11.48;6.45;;;;;;;27.21;48.71;98917.75;5047560;28;20125;-74
2023/06/26 08:59:39;;;;;;;13.63;6.88;;;;;;;26.97;48.58;98918.13;5040385;28;20036;-76
2023/06/26 09:02:05;;;;;;;9.02;5.82;;;;;;;26.97;48.37;98915.28;5039758;28;20092;-76
2023/06/26 09:04:31;;;;;;;10.68;6.65;;;;;;;26.91;50.49;98915.06;5047070;28;20463;-76
2023/06/26 09:06:56;;;;;;;8.55;7.57;;;;;;;26.62;49.26;98920.91;5027258;28;20029;-76
2023/06/26 09:09:22;;;;;;;10.20;6.43;;;;;;;26.80;48.02;98908.84;5034354;28;20443;-76
2023/06/26 09:11:47;;;;;;;6.70;5.90;;;;;;;27.07;48.49;98912.50;5039624;28;20029;-76
2023/06/26 09:14:13;;;;;;;9.00;6.20;;;;;;;26.89;48.64;98916.75;5017624;28;20029;-77
2023/06/26 09:16:41;;;;;;;23.15;5.85;;;;;;;26.93;47.98;98910.91;5018146;28;20096;-77
2023/06/26 09:19:12;;;;;;;12.15;5.95;;;;;;;26.99;48.46;98909.88;5015701;28;20210;-77
2023/06/26 09:21:40;;;;;;;10.40;5.90;;;;;;;27.45;47.72;98906.66;5036669;28;20025;-77
2023/06/26 09:24:07;;;;;;;9.90;6.25;;;;;;;27.17;46.25;98922.81;5035939;28;20100;-77
2023/06/26 09:26:35;;;;;;;7.25;4.75;;;;;;;27.35;46.17;98912.75;5038976;28;20108;-78
2023/06/26 09:29:01;;;;;;;8.30;5.85;;;;;;;27.69;45.36;98905.41;5044415;28;20031;-78
2023/06/26 09:31:26;;;;;;;9.27;5.60;;;;;;;27.92;45.30;98909.09;5029480;28;20120;-78
2023/06/26 09:34:02;;;;;;;10.18;6.18;;;;;;;28.02;44.35;98896.38;5051307;28;20024;-79
2023/06/26 09:36:32;;;;;;;25.80;6.35;;;;;;;28.30;43.05;98905.19;5044479;28;20029;-78
2023/06/26 09:38:58;;;;;;;;;;;;;;;28.33;42.69;98915.72;5027354;28;20028;-77
2023/06/26 09:41:24;;;;;;;8.63;6.03;;;;;;;28.20;44.14;98904.34;5034698;28;19921;-76
2023/06/26 09:43:51;;;;;;;9.35;5.50;;;;;;;28.43;43.38;98903.00;5048818;28;20112;-77
2023/06/26 09:46:17;;;;;;;7.10;5.20;;;;;;;28.39;43.69;98913.03;5023680;28;20185;-77
2023/06/26 09:48:43;;;;;;;8.75;5.38;;;;;;;27.97;44.42;98896.97;5046294;28;20534;-77
2023/06/26 09:51:10;;;;;;;6.85;5.32;;;;;;;27.88;45.03;98895.66;5017242;28;20033;-77
2023/06/26 09:53:38;;;;;;;6.43;5.15;;;;;;;28.11;44.26;98899.28;5043877;28;20566;-78
2023/06/26 09:56:07;;;;;;;9.52;5.07;;;;;;;28.33;43.94;98901.34;5018140;28;20036;-77
2023/06/26 09:58:33;;;;;;;5.60;5.00;;;;;;;28.33;44.33;98897.69;5020773;28;20120;-78
2023/06/26 10:00:59;;;;;;;7.53;5.25;;;;;;;27.93;44.24;98899.19;5018000;28;20100;-80
2023/06/26 10:03:24;;;;;;;8.27;5.53;;;;;;;28.22;43.31;98904.66;5046033;28;20048;-79
2023/06/26 10:05:50;;;;;;;13.38;5.10;;;;;;;27.92;43.80;98906.22;5019601;28;20150;-78
2023/06/26 10:08:17;;;;;;;9.65;5.80;;;;;;;28.16;43.79;98895.81;5021169;28;20078;-78
2023/06/26 10:10:45;;;;;;;11.55;4.60;;;;;;;28.16;43.58;98884.31;5035950;28;20027;-78
2023/06/26 10:13:22;;;;;;;12.05;5.63;;;;;;;28.51;46.57;98888.34;5022676;28;20047;-78
2023/06/26 10:15:50;;;;;;;9.65;5.32;;;;;;;28.45;47.02;98888.94;5029337;28;20035;-78
2023/06/26 10:18:18;;;;;;;8.73;5.05;;;;;;;27.91;47.19;98887.38;5019648;28;20029;-78
2023/06/26 10:20:48;;;;;;;9.52;5.05;;;;;;;27.73;51.47;98898.28;5030841;28;20017;-78
2023/06/26 10:23:15;;;;;;;10.32;5.60;;;;;;;27.29;57.77;98899.00;5029076;28;20029;-79
2023/06/26 10:25:44;;;;;;;9.23;6.03;;;;;;;27.55;59.46;98892.38;5022377;28;20033;-79
2023/06/26 10:28:13;;;;;;;7.18;5.18;;;;;;;27.76;61.87;98885.06;5027123;28;20078;-80
2023/06/26 10:30:39;;;;;;;13.95;5.57;;;;;;;27.82;59.91;98876.63;5029691;28;20419;-80
2023/06/26 10:33:05;;;;;;;14.07;5.72;;;;;;;27.73;60.51;98874.47;5042441;28;20025;-81
2023/06/26 10:35:31;;;;;;;11.38;5.97;;;;;;;27.82;58.58;98865.94;5023325;28;20124;-79
2023/06/26 10:38:04;;;;;;;6.68;4.20;;;;;;;27.94;57.25;98872.06;5043181;28;20072;-77
2023/06/26 10:40:42;;;;;;;6.90;5.13;;;;;;;28.22;57.51;98863.63;5026173;28;20071;-76
2023/06/26 10:43:09;;;;;;;7.00;4.50;;;;;;;28.35;53.79;98864.31;5020494;28;20022;-77
2023/06/26 10:45:36;;;;;;;7.75;4.65;;;;;;;28.51;54.66;98848.88;5029526;28;20033;-78
2023/06/26 10:48:04;;;;;;;6.05;4.25;;;;;;;28.64;52.41;98851.63;5015374;28;20107;-77
2023/06/26 10:50:31;;;;;;;8.02;4.80;;;;;;;28.69;50.57;98850.22;5031823;28;20025;-74
2023/06/26 10:53:33;;;;;;;6.72;4.65;;;;;;;28.92;48.85;98845.19;5041254;28;20114;-77
2023/06/26 10:56:04;;;;;;;10.35;4.75;;;;;;;28.97;47.16;98845.34;5038451;28;20111;-75
2023/06/26 10:58:40;;;;;;;7.68;4.55;;;;;;;29.00;47.36;98843.56;5033236;28;20110;-75
2023/06/26 11:01:14;;;;;;;7.47;4.70;;;;;;;29.12;46.30;98836.88;5025632;28;20388;-74
2023/06/26 11:03:52;;;;;;;5.05;3.53;;;;;;;29.24;45.79;98837.19;5032071;28;20131;-74
2023/06/26 11:06:20;;;;;;;5.32;4.30;;;;;;;29.27;45.29;98844.88;5014100;28;20056;-76
2023/06/26 11:08:48;;;;;;;5.68;4.18;;;;;;;29.23;46.77;98847.91;5039056;28;20033;-77
2023/06/26 11:11:14;;;;;;;5.93;4.20;;;;;;;28.89;45.87;98851.88;5038844;28;20094;-77
2023/06/26 11:13:41;;;;;;;6.22;3.92;;;;;;;28.91;46.63;98847.25;5030873;28;20557;-76
2023/06/26 11:16:06;;;;;;;4.70;3.95;;;;;;;28.99;46.06;98862.13;5014547;28;20025;-77
2023/06/26 11:18:32;;;;;;;5.53;4.18;;;;;;;29.03;47.91;98870.59;5021279;28;20523;-81
2023/06/26 11:21:24;;;;;;;7.22;4.45;;;;;;;27.65;55.15;98859.59;5016390;28;20049;-76
2023/06/26 11:23:51;;;;;;;25.35;7.43;;;;;;;26.97;63.38;98857.06;5044793;28;20399;-76